sensor_id;sensor_type;location;lat;lon;timestamp;P1;durP1;ratioP1;P2;durP2;ratioP2
4202;SDS011;2115;51.038;7.006;2023-02-26T00:01:30;79.50;;;35.50;;
4202;SDS011;2115;51.038;7.006;2023-02-26T00:03:57;73.20;;;32.67;;
4202;SDS011;2115;51.038;7.006;2023-02-26T00:06:24;83.87;;;35.73;;
4202;SDS011;2115;51.038;7.006;2023-02-26T00:08:50;99.00;;;39.30;;
4202;SDS011;2115;51.038;7.006;2023-02-26T00:11:15;127.87;;;44.47;;
4202;SDS011;2115;51.038;7.006;2023-02-26T00:13:42;113.33;;;40.47;;
4202;SDS011;2115;51.038;7.006;2023-02-26T00:16:22;109.87;;;41.33;;
4202;SDS011;2115;51.038;7.006;2023-02-26T00:18:56;90.60;;;36.47;;
4202;SDS011;2115;51.038;7.006;2023-02-26T00:21:23;105.57;;;40.20;;
4202;SDS011;2115;51.038;7.006;2023-02-26T00:23:49;73.97;;;33.80;;
4202;SDS011;2115;51.038;7.006;2023-02-26T00:26:15;103.40;;;39.10;;
4202;SDS011;2115;51.038;7.006;2023-02-26T00:28:41;73.80;;;33.07;;
4202;SDS011;2115;51.038;7.006;2023-02-26T00:31:06;84.63;;;36.53;;
4202;SDS011;2115;51.038;7.006;2023-02-26T00:33:32;73.33;;;33.40;;
4202;SDS011;2115;51.038;7.006;2023-02-26T00:36:00;69.63;;;32.93;;
4202;SDS011;2115;51.038;7.006;2023-02-26T00:38:34;85.23;;;36.60;;
4202;SDS011;2115;51.038;7.006;2023-02-26T00:41:01;57.70;;;28.83;;
4202;SDS011;2115;51.038;7.006;2023-02-26T00:43:26;57.10;;;29.67;;
4202;SDS011;2115;51.038;7.006;2023-02-26T00:51:18;67.60;;;32.03;;
4202;SDS011;2115;51.038;7.006;2023-02-26T00:53:54;51.10;;;27.10;;
4202;SDS011;2115;51.038;7.006;2023-02-26T00:56:34;40.20;;;23.90;;
4202;SDS011;2115;51.038;7.006;2023-02-26T00:58:59;32.77;;;20.03;;
4202;SDS011;2115;51.038;7.006;2023-02-26T01:01:24;32.33;;;19.77;;
4202;SDS011;2115;51.038;7.006;2023-02-26T01:03:50;51.57;;;20.80;;
4202;SDS011;2115;51.038;7.006;2023-02-26T01:06:16;81.90;;;35.37;;
4202;SDS011;2115;51.038;7.006;2023-02-26T01:08:53;112.83;;;41.30;;
4202;SDS011;2115;51.038;7.006;2023-02-26T01:11:23;71.70;;;33.37;;
4202;SDS011;2115;51.038;7.006;2023-02-26T01:13:49;128.23;;;44.67;;
4202;SDS011;2115;51.038;7.006;2023-02-26T01:16:16;127.03;;;43.93;;
4202;SDS011;2115;51.038;7.006;2023-02-26T01:18:52;134.70;;;44.60;;
4202;SDS011;2115;51.038;7.006;2023-02-26T01:21:27;79.20;;;35.50;;
4202;SDS011;2115;51.038;7.006;2023-02-26T01:23:55;125.90;;;43.30;;
4202;SDS011;2115;51.038;7.006;2023-02-26T01:26:22;378.60;;;88.17;;
4202;SDS011;2115;51.038;7.006;2023-02-26T01:28:50;424.37;;;97.37;;
4202;SDS011;2115;51.038;7.006;2023-02-26T01:34:07;65.80;;;31.83;;
4202;SDS011;2115;51.038;7.006;2023-02-26T01:36:43;99.80;;;37.90;;
4202;SDS011;2115;51.038;7.006;2023-02-26T01:42:03;146.83;;;45.90;;
4202;SDS011;2115;51.038;7.006;2023-02-26T01:44:49;435.17;;;97.20;;
4202;SDS011;2115;51.038;7.006;2023-02-26T01:47:31;195.70;;;53.57;;
4202;SDS011;2115;51.038;7.006;2023-02-26T01:50:14;211.40;;;55.67;;
4202;SDS011;2115;51.038;7.006;2023-02-26T01:55:13;369.60;;;82.63;;
4202;SDS011;2115;51.038;7.006;2023-02-26T01:57:44;209.17;;;54.63;;
4202;SDS011;2115;51.038;7.006;2023-02-26T02:00:09;212.33;;;54.40;;
4202;SDS011;2115;51.038;7.006;2023-02-26T02:02:44;239.70;;;59.27;;
4202;SDS011;2115;51.038;7.006;2023-02-26T02:05:12;386.53;;;87.53;;
4202;SDS011;2115;51.038;7.006;2023-02-26T02:07:41;406.33;;;97.47;;
4202;SDS011;2115;51.038;7.006;2023-02-26T02:10:06;485.03;;;108.57;;
4202;SDS011;2115;51.038;7.006;2023-02-26T02:15:19;28.27;;;9.20;;
4202;SDS011;2115;51.038;7.006;2023-02-26T02:25:42;457.87;;;100.77;;
4202;SDS011;2115;51.038;7.006;2023-02-26T02:28:49;472.70;;;104.63;;
4202;SDS011;2115;51.038;7.006;2023-02-26T02:31:24;24.07;;;9.73;;
4202;SDS011;2115;51.038;7.006;2023-02-26T02:34:09;4.63;;;3.37;;
4202;SDS011;2115;51.038;7.006;2023-02-26T02:36:45;414.17;;;92.60;;
4202;SDS011;2115;51.038;7.006;2023-02-26T02:39:18;470.27;;;103.87;;
4202;SDS011;2115;51.038;7.006;2023-02-26T02:42:03;473.03;;;106.20;;
4202;SDS011;2115;51.038;7.006;2023-02-26T02:44:34;478.20;;;109.17;;
4202;SDS011;2115;51.038;7.006;2023-02-26T02:47:01;473.63;;;107.07;;
4202;SDS011;2115;51.038;7.006;2023-02-26T02:49:50;468.50;;;103.90;;
4202;SDS011;2115;51.038;7.006;2023-02-26T02:52:28;476.33;;;106.00;;
4202;SDS011;2115;51.038;7.006;2023-02-26T02:55:17;468.60;;;104.20;;
4202;SDS011;2115;51.038;7.006;2023-02-26T02:57:52;453.80;;;108.57;;
4202;SDS011;2115;51.038;7.006;2023-02-26T03:00:20;366.77;;;83.80;;
4202;SDS011;2115;51.038;7.006;2023-02-26T03:05:25;476.20;;;107.57;;
4202;SDS011;2115;51.038;7.006;2023-02-26T03:08:01;487.47;;;111.73;;
4202;SDS011;2115;51.038;7.006;2023-02-26T03:10:29;488.23;;;113.73;;
4202;SDS011;2115;51.038;7.006;2023-02-26T03:12:55;468.90;;;103.40;;
4202;SDS011;2115;51.038;7.006;2023-02-26T03:15:30;469.27;;;104.53;;
4202;SDS011;2115;51.038;7.006;2023-02-26T03:18:03;460.53;;;101.83;;
4202;SDS011;2115;51.038;7.006;2023-02-26T03:20:36;468.90;;;105.60;;
4202;SDS011;2115;51.038;7.006;2023-02-26T03:23:10;470.47;;;104.90;;
4202;SDS011;2115;51.038;7.006;2023-02-26T03:31:21;470.00;;;106.30;;
4202;SDS011;2115;51.038;7.006;2023-02-26T03:34:00;466.73;;;104.83;;
4202;SDS011;2115;51.038;7.006;2023-02-26T03:36:30;461.97;;;103.90;;
4202;SDS011;2115;51.038;7.006;2023-02-26T03:41:32;257.53;;;59.80;;
4202;SDS011;2115;51.038;7.006;2023-02-26T03:44:08;5.47;;;1.80;;
4202;SDS011;2115;51.038;7.006;2023-02-26T03:46:43;1.00;;;0.63;;
4202;SDS011;2115;51.038;7.006;2023-02-26T03:49:14;365.10;;;83.00;;
4202;SDS011;2115;51.038;7.006;2023-02-26T03:51:44;461.67;;;102.53;;
4202;SDS011;2115;51.038;7.006;2023-02-26T03:54:27;476.83;;;109.17;;
4202;SDS011;2115;51.038;7.006;2023-02-26T03:56:57;468.63;;;106.20;;
4202;SDS011;2115;51.038;7.006;2023-02-26T03:59:23;463.97;;;104.73;;
4202;SDS011;2115;51.038;7.006;2023-02-26T04:04:33;490.67;;;114.90;;
4202;SDS011;2115;51.038;7.006;2023-02-26T04:06:59;470.70;;;107.70;;
4202;SDS011;2115;51.038;7.006;2023-02-26T04:09:25;466.70;;;106.60;;
4202;SDS011;2115;51.038;7.006;2023-02-26T04:11:50;464.00;;;104.63;;
4202;SDS011;2115;51.038;7.006;2023-02-26T04:14:17;458.87;;;102.17;;
4202;SDS011;2115;51.038;7.006;2023-02-26T04:16:43;463.50;;;102.83;;
4202;SDS011;2115;51.038;7.006;2023-02-26T04:19:09;465.43;;;102.80;;
4202;SDS011;2115;51.038;7.006;2023-02-26T04:21:34;462.77;;;103.87;;
4202;SDS011;2115;51.038;7.006;2023-02-26T04:23:59;460.70;;;101.97;;
4202;SDS011;2115;51.038;7.006;2023-02-26T04:26:25;457.50;;;102.00;;
4202;SDS011;2115;51.038;7.006;2023-02-26T04:28:50;443.27;;;100.00;;
4202;SDS011;2115;51.038;7.006;2023-02-26T04:31:15;462.10;;;104.00;;
4202;SDS011;2115;51.038;7.006;2023-02-26T04:33:41;454.57;;;101.40;;
4202;SDS011;2115;51.038;7.006;2023-02-26T04:36:06;17.70;;;9.93;;
4202;SDS011;2115;51.038;7.006;2023-02-26T04:38:32;417.80;;;96.80;;
4202;SDS011;2115;51.038;7.006;2023-02-26T04:40:57;455.40;;;100.33;;
4202;SDS011;2115;51.038;7.006;2023-02-26T04:43:23;461.40;;;103.87;;
4202;SDS011;2115;51.038;7.006;2023-02-26T04:45:48;468.03;;;108.23;;
4202;SDS011;2115;51.038;7.006;2023-02-26T04:48:14;461.77;;;103.80;;
4202;SDS011;2115;51.038;7.006;2023-02-26T04:50:40;27.10;;;18.90;;
4202;SDS011;2115;51.038;7.006;2023-02-26T04:53:06;459.83;;;103.90;;
4202;SDS011;2115;51.038;7.006;2023-02-26T04:55:32;453.57;;;101.70;;
4202;SDS011;2115;51.038;7.006;2023-02-26T04:57:58;306.93;;;68.27;;
4202;SDS011;2115;51.038;7.006;2023-02-26T05:00:24;418.73;;;85.43;;
4202;SDS011;2115;51.038;7.006;2023-02-26T05:02:49;483.47;;;111.07;;
4202;SDS011;2115;51.038;7.006;2023-02-26T05:05:15;386.87;;;82.60;;
4202;SDS011;2115;51.038;7.006;2023-02-26T05:07:43;51.53;;;28.33;;
4202;SDS011;2115;51.038;7.006;2023-02-26T05:10:09;299.87;;;83.57;;
4202;SDS011;2115;51.038;7.006;2023-02-26T05:12:34;140.57;;;45.23;;
4202;SDS011;2115;51.038;7.006;2023-02-26T05:15:00;156.00;;;47.60;;
4202;SDS011;2115;51.038;7.006;2023-02-26T05:17:26;243.33;;;59.03;;
4202;SDS011;2115;51.038;7.006;2023-02-26T05:19:51;76.07;;;39.77;;
4202;SDS011;2115;51.038;7.006;2023-02-26T05:22:16;160.87;;;47.33;;
4202;SDS011;2115;51.038;7.006;2023-02-26T05:24:42;193.87;;;51.90;;
4202;SDS011;2115;51.038;7.006;2023-02-26T05:27:08;377.97;;;143.37;;
4202;SDS011;2115;51.038;7.006;2023-02-26T05:29:33;208.80;;;64.27;;
4202;SDS011;2115;51.038;7.006;2023-02-26T05:31:59;454.67;;;227.03;;
4202;SDS011;2115;51.038;7.006;2023-02-26T05:34:25;177.40;;;54.80;;
4202;SDS011;2115;51.038;7.006;2023-02-26T05:36:50;198.50;;;53.13;;
4202;SDS011;2115;51.038;7.006;2023-02-26T05:39:15;184.63;;;50.57;;
4202;SDS011;2115;51.038;7.006;2023-02-26T05:41:41;207.77;;;52.93;;
4202;SDS011;2115;51.038;7.006;2023-02-26T05:44:06;374.77;;;77.73;;
4202;SDS011;2115;51.038;7.006;2023-02-26T05:46:34;377.67;;;93.30;;
4202;SDS011;2115;51.038;7.006;2023-02-26T05:48:59;438.07;;;100.70;;
4202;SDS011;2115;51.038;7.006;2023-02-26T05:51:25;441.60;;;99.67;;
4202;SDS011;2115;51.038;7.006;2023-02-26T05:53:50;109.83;;;39.57;;
4202;SDS011;2115;51.038;7.006;2023-02-26T05:56:16;114.57;;;39.10;;
4202;SDS011;2115;51.038;7.006;2023-02-26T05:58:41;162.67;;;47.50;;
4202;SDS011;2115;51.038;7.006;2023-02-26T06:01:06;15.80;;;1.20;;
4202;SDS011;2115;51.038;7.006;2023-02-26T06:03:32;20.90;;;13.57;;
4202;SDS011;2115;51.038;7.006;2023-02-26T06:05:57;63.90;;;40.57;;
4202;SDS011;2115;51.038;7.006;2023-02-26T06:08:23;30.30;;;19.93;;
4202;SDS011;2115;51.038;7.006;2023-02-26T06:10:48;322.73;;;77.57;;
4202;SDS011;2115;51.038;7.006;2023-02-26T06:13:15;439.80;;;99.33;;
4202;SDS011;2115;51.038;7.006;2023-02-26T06:15:42;442.53;;;102.73;;
4202;SDS011;2115;51.038;7.006;2023-02-26T06:18:07;29.47;;;15.93;;
4202;SDS011;2115;51.038;7.006;2023-02-26T06:20:32;82.53;;;36.23;;
4202;SDS011;2115;51.038;7.006;2023-02-26T06:22:58;15.17;;;11.70;;
4202;SDS011;2115;51.038;7.006;2023-02-26T06:25:23;433.53;;;100.83;;
4202;SDS011;2115;51.038;7.006;2023-02-26T06:27:49;431.13;;;99.50;;
4202;SDS011;2115;51.038;7.006;2023-02-26T06:30:14;439.30;;;103.00;;
4202;SDS011;2115;51.038;7.006;2023-02-26T06:32:42;99.03;;;38.10;;
4202;SDS011;2115;51.038;7.006;2023-02-26T06:35:08;193.10;;;51.70;;
4202;SDS011;2115;51.038;7.006;2023-02-26T06:37:34;208.10;;;54.00;;
4202;SDS011;2115;51.038;7.006;2023-02-26T06:39:59;230.30;;;56.97;;
4202;SDS011;2115;51.038;7.006;2023-02-26T06:42:24;268.10;;;62.53;;
4202;SDS011;2115;51.038;7.006;2023-02-26T06:44:50;313.63;;;72.70;;
4202;SDS011;2115;51.038;7.006;2023-02-26T06:47:15;303.10;;;67.03;;
4202;SDS011;2115;51.038;7.006;2023-02-26T06:49:40;363.10;;;75.10;;
4202;SDS011;2115;51.038;7.006;2023-02-26T06:52:06;369.60;;;78.40;;
4202;SDS011;2115;51.038;7.006;2023-02-26T06:54:31;350.60;;;72.70;;
4202;SDS011;2115;51.038;7.006;2023-02-26T06:56:56;315.73;;;69.20;;
4202;SDS011;2115;51.038;7.006;2023-02-26T06:59:22;347.23;;;73.33;;
4202;SDS011;2115;51.038;7.006;2023-02-26T07:01:48;338.73;;;70.37;;
4202;SDS011;2115;51.038;7.006;2023-02-26T07:04:13;372.57;;;76.43;;
4202;SDS011;2115;51.038;7.006;2023-02-26T07:06:39;418.73;;;87.10;;
4202;SDS011;2115;51.038;7.006;2023-02-26T07:09:04;371.93;;;77.63;;
4202;SDS011;2115;51.038;7.006;2023-02-26T07:11:29;454.93;;;94.33;;
4202;SDS011;2115;51.038;7.006;2023-02-26T07:13:55;451.93;;;90.80;;
4202;SDS011;2115;51.038;7.006;2023-02-26T07:16:20;441.93;;;87.30;;
4202;SDS011;2115;51.038;7.006;2023-02-26T07:18:46;363.43;;;74.03;;
4202;SDS011;2115;51.038;7.006;2023-02-26T07:21:11;483.53;;;99.97;;
4202;SDS011;2115;51.038;7.006;2023-02-26T07:23:36;430.87;;;87.40;;
4202;SDS011;2115;51.038;7.006;2023-02-26T07:26:02;256.23;;;62.57;;
4202;SDS011;2115;51.038;7.006;2023-02-26T07:28:27;240.13;;;67.40;;
4202;SDS011;2115;51.038;7.006;2023-02-26T07:30:53;473.63;;;118.83;;
4202;SDS011;2115;51.038;7.006;2023-02-26T07:33:19;373.93;;;101.83;;
4202;SDS011;2115;51.038;7.006;2023-02-26T07:35:45;392.93;;;79.57;;
4202;SDS011;2115;51.038;7.006;2023-02-26T07:38:11;341.80;;;95.40;;
4202;SDS011;2115;51.038;7.006;2023-02-26T07:40:36;403.63;;;105.50;;
4202;SDS011;2115;51.038;7.006;2023-02-26T07:43:02;348.20;;;92.43;;
4202;SDS011;2115;51.038;7.006;2023-02-26T07:45:27;289.00;;;68.43;;
4202;SDS011;2115;51.038;7.006;2023-02-26T07:47:52;329.90;;;79.03;;
4202;SDS011;2115;51.038;7.006;2023-02-26T07:50:18;265.40;;;66.07;;
4202;SDS011;2115;51.038;7.006;2023-02-26T07:52:45;287.53;;;64.90;;
4202;SDS011;2115;51.038;7.006;2023-02-26T07:55:10;385.67;;;84.93;;
4202;SDS011;2115;51.038;7.006;2023-02-26T07:57:36;203.20;;;56.83;;
4202;SDS011;2115;51.038;7.006;2023-02-26T08:00:02;225.53;;;84.23;;
4202;SDS011;2115;51.038;7.006;2023-02-26T08:02:29;480.53;;;208.87;;
4202;SDS011;2115;51.038;7.006;2023-02-26T08:04:54;336.63;;;88.70;;
4202;SDS011;2115;51.038;7.006;2023-02-26T08:07:20;379.33;;;79.73;;
4202;SDS011;2115;51.038;7.006;2023-02-26T08:09:48;370.53;;;86.80;;
4202;SDS011;2115;51.038;7.006;2023-02-26T08:12:13;369.00;;;77.53;;
4202;SDS011;2115;51.038;7.006;2023-02-26T08:14:39;426.87;;;92.93;;
4202;SDS011;2115;51.038;7.006;2023-02-26T08:17:06;408.83;;;83.67;;
4202;SDS011;2115;51.038;7.006;2023-02-26T08:19:32;492.60;;;105.73;;
4202;SDS011;2115;51.038;7.006;2023-02-26T08:21:58;461.20;;;111.10;;
4202;SDS011;2115;51.038;7.006;2023-02-26T08:24:23;515.63;;;144.50;;
4202;SDS011;2115;51.038;7.006;2023-02-26T08:26:48;521.80;;;135.40;;
4202;SDS011;2115;51.038;7.006;2023-02-26T08:29:14;547.80;;;129.63;;
4202;SDS011;2115;51.038;7.006;2023-02-26T08:31:39;459.80;;;92.00;;
4202;SDS011;2115;51.038;7.006;2023-02-26T08:34:05;501.23;;;100.87;;
4202;SDS011;2115;51.038;7.006;2023-02-26T08:36:30;511.33;;;104.80;;
4202;SDS011;2115;51.038;7.006;2023-02-26T08:38:56;466.77;;;102.13;;
4202;SDS011;2115;51.038;7.006;2023-02-26T08:41:22;503.87;;;105.27;;
4202;SDS011;2115;51.038;7.006;2023-02-26T08:43:48;514.40;;;107.73;;
4202;SDS011;2115;51.038;7.006;2023-02-26T08:46:13;518.13;;;119.27;;
4202;SDS011;2115;51.038;7.006;2023-02-26T08:48:38;509.73;;;112.73;;
4202;SDS011;2115;51.038;7.006;2023-02-26T08:51:04;514.90;;;114.67;;
4202;SDS011;2115;51.038;7.006;2023-02-26T08:53:29;475.63;;;114.37;;
4202;SDS011;2115;51.038;7.006;2023-02-26T08:55:54;482.73;;;102.40;;
4202;SDS011;2115;51.038;7.006;2023-02-26T08:58:20;417.83;;;83.63;;
4202;SDS011;2115;51.038;7.006;2023-02-26T09:00:45;442.13;;;86.97;;
4202;SDS011;2115;51.038;7.006;2023-02-26T09:03:11;494.10;;;99.00;;
4202;SDS011;2115;51.038;7.006;2023-02-26T09:05:36;502.80;;;103.20;;
4202;SDS011;2115;51.038;7.006;2023-02-26T09:08:02;515.27;;;108.80;;
4202;SDS011;2115;51.038;7.006;2023-02-26T09:10:28;515.77;;;115.80;;
4202;SDS011;2115;51.038;7.006;2023-02-26T09:12:53;474.73;;;104.43;;
4202;SDS011;2115;51.038;7.006;2023-02-26T09:15:18;517.23;;;106.13;;
4202;SDS011;2115;51.038;7.006;2023-02-26T09:17:44;446.13;;;89.40;;
4202;SDS011;2115;51.038;7.006;2023-02-26T09:20:10;503.40;;;100.83;;
4202;SDS011;2115;51.038;7.006;2023-02-26T09:22:37;415.43;;;85.17;;
4202;SDS011;2115;51.038;7.006;2023-02-26T09:25:03;492.67;;;158.97;;
4202;SDS011;2115;51.038;7.006;2023-02-26T09:27:28;317.63;;;70.63;;
4202;SDS011;2115;51.038;7.006;2023-02-26T09:29:54;442.13;;;110.53;;
4202;SDS011;2115;51.038;7.006;2023-02-26T09:32:19;476.23;;;93.47;;
4202;SDS011;2115;51.038;7.006;2023-02-26T09:34:44;486.20;;;95.10;;
4202;SDS011;2115;51.038;7.006;2023-02-26T09:37:10;472.13;;;95.00;;
4202;SDS011;2115;51.038;7.006;2023-02-26T09:39:35;429.60;;;131.77;;
4202;SDS011;2115;51.038;7.006;2023-02-26T09:42:21;470.90;;;97.50;;
4202;SDS011;2115;51.038;7.006;2023-02-26T09:44:58;364.10;;;76.67;;
4202;SDS011;2115;51.038;7.006;2023-02-26T09:55:33;352.00;;;75.37;;
4202;SDS011;2115;51.038;7.006;2023-02-26T09:58:01;265.07;;;63.30;;
4202;SDS011;2115;51.038;7.006;2023-02-26T10:06:30;280.00;;;62.97;;
4202;SDS011;2115;51.038;7.006;2023-02-26T10:11:54;453.67;;;87.90;;
4202;SDS011;2115;51.038;7.006;2023-02-26T10:14:23;340.50;;;77.23;;
4202;SDS011;2115;51.038;7.006;2023-02-26T10:16:57;461.90;;;95.77;;
4202;SDS011;2115;51.038;7.006;2023-02-26T10:19:26;489.93;;;98.97;;
4202;SDS011;2115;51.038;7.006;2023-02-26T10:22:18;481.03;;;94.67;;
4202;SDS011;2115;51.038;7.006;2023-02-26T10:24:44;351.07;;;78.93;;
4202;SDS011;2115;51.038;7.006;2023-02-26T10:27:16;376.13;;;79.47;;
4202;SDS011;2115;51.038;7.006;2023-02-26T10:29:50;452.83;;;87.33;;
4202;SDS011;2115;51.038;7.006;2023-02-26T10:34:55;459.13;;;91.30;;
4202;SDS011;2115;51.038;7.006;2023-02-26T10:40:18;463.63;;;92.23;;
4202;SDS011;2115;51.038;7.006;2023-02-26T10:45:38;457.53;;;89.70;;
4202;SDS011;2115;51.038;7.006;2023-02-26T10:51:10;468.77;;;94.10;;
4202;SDS011;2115;51.038;7.006;2023-02-26T10:53:38;463.30;;;94.00;;
4202;SDS011;2115;51.038;7.006;2023-02-26T10:56:08;460.63;;;91.20;;
4202;SDS011;2115;51.038;7.006;2023-02-26T10:58:36;503.57;;;101.60;;
4202;SDS011;2115;51.038;7.006;2023-02-26T11:01:01;478.00;;;97.67;;
4202;SDS011;2115;51.038;7.006;2023-02-26T11:03:42;485.60;;;99.97;;
4202;SDS011;2115;51.038;7.006;2023-02-26T11:06:09;482.20;;;101.27;;
4202;SDS011;2115;51.038;7.006;2023-02-26T11:08:45;476.77;;;113.30;;
4202;SDS011;2115;51.038;7.006;2023-02-26T11:11:34;532.93;;;124.07;;
4202;SDS011;2115;51.038;7.006;2023-02-26T11:14:09;522.43;;;127.27;;
4202;SDS011;2115;51.038;7.006;2023-02-26T11:16:40;549.83;;;149.03;;
4202;SDS011;2115;51.038;7.006;2023-02-26T11:19:11;554.00;;;169.20;;
4202;SDS011;2115;51.038;7.006;2023-02-26T11:21:39;484.60;;;186.87;;
4202;SDS011;2115;51.038;7.006;2023-02-26T11:26:53;405.23;;;238.07;;
4202;SDS011;2115;51.038;7.006;2023-02-26T11:29:21;378.90;;;261.70;;
4202;SDS011;2115;51.038;7.006;2023-02-26T11:31:54;340.67;;;275.57;;
4202;SDS011;2115;51.038;7.006;2023-02-26T11:34:22;360.53;;;243.77;;
4202;SDS011;2115;51.038;7.006;2023-02-26T11:36:49;341.00;;;271.73;;
4202;SDS011;2115;51.038;7.006;2023-02-26T11:39:21;324.00;;;276.80;;
4202;SDS011;2115;51.038;7.006;2023-02-26T11:41:48;365.03;;;319.17;;
4202;SDS011;2115;51.038;7.006;2023-02-26T11:44:16;300.10;;;263.67;;
4202;SDS011;2115;51.038;7.006;2023-02-26T11:46:46;229.87;;;206.77;;
4202;SDS011;2115;51.038;7.006;2023-02-26T11:49:15;160.37;;;146.67;;
4202;SDS011;2115;51.038;7.006;2023-02-26T11:51:43;247.27;;;226.17;;
4202;SDS011;2115;51.038;7.006;2023-02-26T11:54:21;321.47;;;292.33;;
4202;SDS011;2115;51.038;7.006;2023-02-26T11:56:48;152.10;;;142.80;;
4202;SDS011;2115;51.038;7.006;2023-02-26T11:59:18;207.07;;;190.47;;
4202;SDS011;2115;51.038;7.006;2023-02-26T12:01:45;246.57;;;228.37;;
4202;SDS011;2115;51.038;7.006;2023-02-26T12:04:12;195.57;;;182.17;;
4202;SDS011;2115;51.038;7.006;2023-02-26T12:06:38;416.50;;;380.83;;
4202;SDS011;2115;51.038;7.006;2023-02-26T12:09:05;413.83;;;376.67;;
4202;SDS011;2115;51.038;7.006;2023-02-26T12:46:48;370.37;;;342.47;;
4202;SDS011;2115;51.038;7.006;2023-02-26T12:53:04;324.53;;;300.87;;
4202;SDS011;2115;51.038;7.006;2023-02-26T12:57:49;353.67;;;325.20;;
4202;SDS011;2115;51.038;7.006;2023-02-26T13:05:57;348.50;;;323.23;;
4202;SDS011;2115;51.038;7.006;2023-02-26T13:08:32;521.20;;;477.27;;
4202;SDS011;2115;51.038;7.006;2023-02-26T13:17:08;420.87;;;382.23;;
4202;SDS011;2115;51.038;7.006;2023-02-26T13:19:57;432.90;;;384.87;;
4202;SDS011;2115;51.038;7.006;2023-02-26T13:22:34;454.13;;;403.53;;
4202;SDS011;2115;51.038;7.006;2023-02-26T13:25:15;387.17;;;346.20;;
4202;SDS011;2115;51.038;7.006;2023-02-26T13:27:42;360.27;;;323.43;;
4202;SDS011;2115;51.038;7.006;2023-02-26T13:32:46;438.67;;;391.77;;
4202;SDS011;2115;51.038;7.006;2023-02-26T13:37:54;218.50;;;196.20;;
4202;SDS011;2115;51.038;7.006;2023-02-26T13:48:56;459.03;;;410.23;;
4202;SDS011;2115;51.038;7.006;2023-02-26T13:51:29;670.77;;;297.80;;
4202;SDS011;2115;51.038;7.006;2023-02-26T13:54:06;497.50;;;412.43;;
4202;SDS011;2115;51.038;7.006;2023-02-26T13:59:02;181.57;;;162.13;;
4202;SDS011;2115;51.038;7.006;2023-02-26T14:01:33;19.07;;;17.07;;
4202;SDS011;2115;51.038;7.006;2023-02-26T14:09:29;110.13;;;93.87;;
4202;SDS011;2115;51.038;7.006;2023-02-26T14:12:00;4.70;;;2.00;;
4202;SDS011;2115;51.038;7.006;2023-02-26T14:22:50;35.87;;;4.10;;
4202;SDS011;2115;51.038;7.006;2023-02-26T14:31:45;16.23;;;6.40;;
4202;SDS011;2115;51.038;7.006;2023-02-26T14:36:28;723.87;;;342.67;;
4202;SDS011;2115;51.038;7.006;2023-02-26T14:38:58;678.13;;;288.57;;
4202;SDS011;2115;51.038;7.006;2023-02-26T14:41:30;715.77;;;309.53;;
4202;SDS011;2115;51.038;7.006;2023-02-26T14:44:21;703.80;;;305.30;;
4202;SDS011;2115;51.038;7.006;2023-02-26T14:46:45;691.03;;;284.03;;
4202;SDS011;2115;51.038;7.006;2023-02-26T14:49:18;708.60;;;302.40;;
4202;SDS011;2115;51.038;7.006;2023-02-26T15:06:09;636.30;;;160.47;;
4202;SDS011;2115;51.038;7.006;2023-02-26T15:09:05;588.80;;;137.97;;
4202;SDS011;2115;51.038;7.006;2023-02-26T15:20:29;549.83;;;120.93;;
4202;SDS011;2115;51.038;7.006;2023-02-26T15:25:31;538.57;;;116.20;;
4202;SDS011;2115;51.038;7.006;2023-02-26T15:28:00;545.93;;;119.57;;
4202;SDS011;2115;51.038;7.006;2023-02-26T15:30:27;541.03;;;117.23;;
4202;SDS011;2115;51.038;7.006;2023-02-26T15:32:57;535.70;;;115.80;;
4202;SDS011;2115;51.038;7.006;2023-02-26T15:35:26;542.70;;;119.47;;
4202;SDS011;2115;51.038;7.006;2023-02-26T15:37:53;528.20;;;114.40;;
4202;SDS011;2115;51.038;7.006;2023-02-26T15:40:21;523.13;;;112.20;;
4202;SDS011;2115;51.038;7.006;2023-02-26T15:42:50;520.07;;;112.10;;
4202;SDS011;2115;51.038;7.006;2023-02-26T15:47:47;528.57;;;115.50;;
4202;SDS011;2115;51.038;7.006;2023-02-26T15:50:18;542.80;;;121.63;;
4202;SDS011;2115;51.038;7.006;2023-02-26T15:52:50;520.70;;;112.80;;
4202;SDS011;2115;51.038;7.006;2023-02-26T15:55:19;524.80;;;114.33;;
4202;SDS011;2115;51.038;7.006;2023-02-26T15:57:46;512.40;;;110.10;;
4202;SDS011;2115;51.038;7.006;2023-02-26T16:00:14;515.67;;;111.80;;
4202;SDS011;2115;51.038;7.006;2023-02-26T16:02:41;517.07;;;112.00;;
4202;SDS011;2115;51.038;7.006;2023-02-26T16:05:09;526.70;;;116.20;;
4202;SDS011;2115;51.038;7.006;2023-02-26T16:07:38;511.40;;;109.57;;
4202;SDS011;2115;51.038;7.006;2023-02-26T16:10:05;538.27;;;121.23;;
4202;SDS011;2115;51.038;7.006;2023-02-26T16:12:36;526.30;;;115.50;;
4202;SDS011;2115;51.038;7.006;2023-02-26T16:15:10;512.20;;;110.77;;
4202;SDS011;2115;51.038;7.006;2023-02-26T16:17:38;517.00;;;112.47;;
4202;SDS011;2115;51.038;7.006;2023-02-26T16:20:05;524.70;;;116.30;;
4202;SDS011;2115;51.038;7.006;2023-02-26T16:23:23;513.73;;;112.43;;
4202;SDS011;2115;51.038;7.006;2023-02-26T16:25:47;509.30;;;110.50;;
4202;SDS011;2115;51.038;7.006;2023-02-26T16:28:19;522.27;;;115.67;;
4202;SDS011;2115;51.038;7.006;2023-02-26T16:30:46;512.93;;;111.80;;
4202;SDS011;2115;51.038;7.006;2023-02-26T16:33:14;510.70;;;110.77;;
4202;SDS011;2115;51.038;7.006;2023-02-26T16:35:42;511.30;;;109.87;;
4202;SDS011;2115;51.038;7.006;2023-02-26T16:38:22;519.37;;;114.60;;
4202;SDS011;2115;51.038;7.006;2023-02-26T16:40:57;512.60;;;112.13;;
4202;SDS011;2115;51.038;7.006;2023-02-26T16:46:00;514.37;;;113.80;;
4202;SDS011;2115;51.038;7.006;2023-02-26T16:51:12;508.20;;;110.77;;
4202;SDS011;2115;51.038;7.006;2023-02-26T16:53:41;510.20;;;111.93;;
4202;SDS011;2115;51.038;7.006;2023-02-26T16:56:12;508.50;;;110.73;;
4202;SDS011;2115;51.038;7.006;2023-02-26T16:58:46;502.60;;;109.20;;
4202;SDS011;2115;51.038;7.006;2023-02-26T17:01:15;506.10;;;109.60;;
4202;SDS011;2115;51.038;7.006;2023-02-26T17:03:44;504.43;;;110.43;;
4202;SDS011;2115;51.038;7.006;2023-02-26T17:06:14;537.87;;;124.83;;
4202;SDS011;2115;51.038;7.006;2023-02-26T17:08:49;503.03;;;109.57;;
4202;SDS011;2115;51.038;7.006;2023-02-26T17:11:29;501.37;;;109.10;;
4202;SDS011;2115;51.038;7.006;2023-02-26T17:14:43;469.87;;;104.37;;
4202;SDS011;2115;51.038;7.006;2023-02-26T17:16:48;507.77;;;111.47;;
4202;SDS011;2115;51.038;7.006;2023-02-26T17:19:14;508.00;;;112.03;;
4202;SDS011;2115;51.038;7.006;2023-02-26T17:21:41;501.17;;;109.70;;
4202;SDS011;2115;51.038;7.006;2023-02-26T17:24:16;504.00;;;110.40;;
4202;SDS011;2115;51.038;7.006;2023-02-26T17:26:43;498.37;;;108.67;;
4202;SDS011;2115;51.038;7.006;2023-02-26T17:29:14;497.90;;;109.10;;
4202;SDS011;2115;51.038;7.006;2023-02-26T17:31:42;501.73;;;111.10;;
4202;SDS011;2115;51.038;7.006;2023-02-26T17:34:09;489.67;;;105.67;;
4202;SDS011;2115;51.038;7.006;2023-02-26T17:36:35;489.87;;;107.00;;
4202;SDS011;2115;51.038;7.006;2023-02-26T17:39:00;488.57;;;106.00;;
4202;SDS011;2115;51.038;7.006;2023-02-26T17:41:26;527.30;;;120.27;;
4202;SDS011;2115;51.038;7.006;2023-02-26T17:43:52;494.27;;;108.60;;
4202;SDS011;2115;51.038;7.006;2023-02-26T17:46:17;488.97;;;105.80;;
4202;SDS011;2115;51.038;7.006;2023-02-26T17:48:43;495.07;;;106.17;;
4202;SDS011;2115;51.038;7.006;2023-02-26T17:51:08;497.53;;;108.00;;
4202;SDS011;2115;51.038;7.006;2023-02-26T17:53:35;501.03;;;111.20;;
4202;SDS011;2115;51.038;7.006;2023-02-26T17:56:07;490.67;;;106.50;;